Time;durP1;ratioP1;P1;durP2;ratioP2;P2;SDS_P1;SDS_P2;PMS_P1;PMS_P2;Temp;Humidity;BMP_temperature;BMP_pressure;BME280_temperature;BME280_humidity;BME280_pressure;Samples;Min_cycle;Max_cycle;Signal;HPM_P1;HPM_P2
2022/12/13 00:01:48;;;;;;;62.05;25.65;;;-4.10;99.90;;;;;;4973372;28;20066;-85
2022/12/13 00:04:14;;;;;;;54.70;25.40;;;-4.10;99.90;;;;;;4983686;28;20094;-85
2022/12/13 00:06:41;;;;;;;62.40;26.13;;;-4.10;99.90;;;;;;4968454;28;20842;-85
2022/12/13 00:09:06;;;;;;;59.55;25.65;;;-4.10;99.90;;;;;;4956447;28;20078;-85
2022/12/13 00:11:32;;;;;;;60.33;24.73;;;-4.10;99.90;;;;;;4972756;28;20129;-85
2022/12/13 00:13:58;;;;;;;61.28;24.30;;;-4.10;99.90;;;;;;4971858;28;20050;-86
2022/12/13 00:16:27;;;;;;;63.90;25.45;;;-4.10;99.90;;;;;;4971354;28;20117;-85
2022/12/13 00:18:56;;;;;;;65.47;25.95;;;-4.10;99.90;;;;;;4954633;28;20083;-85
2022/12/13 00:21:28;;;;;;;66.60;26.58;;;-4.10;99.90;;;;;;4970262;28;20055;-85
2022/12/13 00:23:54;;;;;;;61.63;23.90;;;-4.20;99.90;;;;;;4971059;28;20795;-85
2022/12/13 00:26:23;;;;;;;61.22;25.05;;;-4.20;99.90;;;;;;4969184;28;20043;-85
2022/12/13 00:28:50;;;;;;;66.88;26.08;;;-4.20;99.90;;;;;;4970191;28;20046;-86
2022/12/13 00:31:18;;;;;;;63.42;26.13;;;-4.20;99.90;;;;;;4975291;28;20126;-85
2022/12/13 00:33:48;;;;;;;62.53;25.60;;;-4.20;99.90;;;;;;4973091;28;20056;-85
2022/12/13 00:36:16;;;;;;;60.10;27.00;;;-4.20;99.90;;;;;;4975814;28;20116;-84
2022/12/13 00:38:43;;;;;;;59.33;25.38;;;-4.20;99.90;;;;;;4970448;28;20149;-85
2022/12/13 00:41:14;;;;;;;58.90;25.88;;;-4.20;99.90;;;;;;4956811;28;20046;-86
2022/12/13 00:43:40;;;;;;;61.50;24.92;;;-4.30;99.90;;;;;;4972564;28;20061;-85
2022/12/13 00:46:13;;;;;;;58.00;24.92;;;-4.30;99.90;;;;;;4973547;28;20138;-85
2022/12/13 00:48:39;;;;;;;52.28;23.65;;;-4.30;99.90;;;;;;4974112;28;20072;-85
2022/12/13 00:51:09;;;;;;;52.20;24.63;;;-4.40;99.90;;;;;;4968611;28;20348;-85
2022/12/13 00:53:35;;;;;;;55.78;24.58;;;-4.40;99.90;;;;;;4987874;28;20047;-85
2022/12/13 00:56:01;;;;;;;65.55;25.35;;;-4.40;99.90;;;;;;4973899;28;20037;-86
2022/12/13 00:58:27;;;;;;;56.33;25.23;;;-4.40;99.90;;;;;;4972683;28;20096;-85
2022/12/13 01:00:52;;;;;;;56.00;24.77;;;-4.40;99.90;;;;;;4967599;28;20038;-85
2022/12/13 01:03:24;;;;;;;58.97;24.67;;;-4.40;99.90;;;;;;4993474;28;20633;-85
2022/12/13 01:05:50;;;;;;;58.22;24.88;;;-4.40;99.90;;;;;;4975773;28;20046;-84
2022/12/13 01:08:16;;;;;;;60.47;25.48;;;-4.40;99.90;;;;;;4975564;28;20440;-86
2022/12/13 01:10:46;;;;;;;62.70;25.58;;;-4.40;99.90;;;;;;4973152;28;20065;-85
2022/12/13 01:13:13;;;;;;;61.72;25.52;;;-4.30;99.90;;;;;;4975130;28;20129;-86
2022/12/13 01:15:44;;;;;;;66.90;26.58;;;-4.30;99.90;;;;;;4975802;28;20187;-85
2022/12/13 01:18:17;;;;;;;64.55;26.98;;;-4.30;99.90;;;;;;4993965;28;20050;-85
2022/12/13 01:20:56;;;;;;;55.85;26.13;;;-4.30;99.90;;;;;;4993659;28;20564;-85
2022/12/13 01:23:21;;;;;;;56.00;25.00;;;-4.30;99.90;;;;;;4963288;28;20046;-84
2022/12/13 01:25:47;;;;;;;57.42;26.73;;;-4.40;99.90;;;;;;4975739;28;20068;-85
2022/12/13 01:28:12;;;;;;;60.15;25.15;;;-4.40;99.90;;;;;;4976680;28;20672;-85
2022/12/13 01:30:38;;;;;;;63.00;27.48;;;-4.40;99.90;;;;;;4964653;28;20558;-84
2022/12/13 01:33:04;;;;;;;57.67;25.35;;;-4.40;99.90;;;;;;4974877;28;20249;-85
2022/12/13 01:35:33;;;;;;;62.45;28.35;;;-4.40;99.90;;;;;;4979629;28;20441;-86
2022/12/13 01:37:58;;;;;;;65.88;30.25;;;-4.50;99.90;;;;;;4961252;28;20952;-85
2022/12/13 01:40:24;;;;;;;62.67;25.50;;;-4.40;99.90;;;;;;4989550;28;20550;-86
2022/12/13 01:42:50;;;;;;;51.55;23.50;;;-4.50;99.90;;;;;;4973760;28;20524;-85
2022/12/13 01:45:19;;;;;;;49.05;23.02;;;-4.60;99.90;;;;;;4979428;28;20057;-85
2022/12/13 01:47:55;;;;;;;48.22;22.88;;;-4.70;99.90;;;;;;4971737;28;20049;-85
2022/12/13 01:50:25;;;;;;;54.45;23.08;;;-4.70;99.90;;;;;;4978848;28;20106;-85
2022/12/13 01:52:53;;;;;;;48.97;22.85;;;-4.70;99.90;;;;;;4971328;28;20450;-86
2022/12/13 01:55:21;;;;;;;53.25;23.90;;;-4.80;99.90;;;;;;4974783;28;20401;-85
2022/12/13 01:57:52;;;;;;;52.90;23.90;;;-4.80;99.90;;;;;;4975190;28;20034;-85
2022/12/13 02:00:18;;;;;;;52.05;22.23;;;-4.80;99.90;;;;;;4972405;28;20229;-85
2022/12/13 02:02:45;;;;;;;54.05;24.73;;;-4.90;99.90;;;;;;4972863;28;20058;-85
2022/12/13 02:05:44;;;;;;;53.97;25.15;;;-4.90;99.90;;;;;;4956771;28;20045;-85
2022/12/13 02:08:12;;;;;;;44.80;22.45;;;-4.90;99.90;;;;;;4972399;28;20058;-85
2022/12/13 02:10:38;;;;;;;53.80;24.67;;;-4.90;99.90;;;;;;4954505;28;20046;-85
2022/12/13 02:13:04;;;;;;;49.55;22.50;;;-4.90;99.90;;;;;;4960170;28;20088;-85
2022/12/13 02:16:04;;;;;;;48.50;22.40;;;-5.00;99.90;;;;;;4975505;28;20042;-85
2022/12/13 02:18:51;;;;;;;50.20;22.85;;;-5.00;99.90;;;;;;4988331;28;20085;-85
2022/12/13 02:21:35;;;;;;;50.75;24.15;;;-4.90;99.90;;;;;;4981890;28;20042;-86
2022/12/13 02:24:01;;;;;;;61.60;28.60;;;-5.00;99.90;;;;;;4973275;28;20469;-86
2022/12/13 02:26:48;;;;;;;57.50;28.45;;;-5.00;99.90;;;;;;4992544;28;20580;-85
2022/12/13 02:29:41;;;;;;;53.88;29.50;;;-5.00;99.90;;;;;;4956715;28;20049;-85
2022/12/13 02:32:27;;;;;;;65.60;30.25;;;-5.00;99.90;;;;;;4973645;28;20290;-86
2022/12/13 02:34:56;;;;;;;59.10;29.48;;;-5.00;99.90;;;;;;4978180;28;20466;-85
2022/12/13 02:37:24;;;;;;;68.53;33.30;;;-5.00;99.90;;;;;;4973520;28;20050;-85
2022/12/13 02:40:04;;;;;;;59.50;33.55;;;-5.10;99.90;;;;;;4972355;28;20093;-85
2022/12/13 02:42:45;;;;;;;63.03;32.67;;;-5.00;99.90;;;;;;4992586;28;20507;-85
2022/12/13 02:45:19;;;;;;;62.25;29.88;;;-5.00;99.90;;;;;;4987620;28;20081;-85
2022/12/13 02:47:46;;;;;;;65.13;31.93;;;-5.10;99.90;;;;;;4973465;28;20471;-86
2022/12/13 02:50:13;;;;;;;58.92;31.27;;;-5.00;99.90;;;;;;4976322;28;20836;-85
2022/12/13 02:52:42;;;;;;;60.42;33.83;;;-5.10;99.90;;;;;;4986336;28;20042;-85
2022/12/13 02:55:11;;;;;;;65.30;33.53;;;-5.10;99.90;;;;;;4970621;28;20364;-85
2022/12/13 02:57:47;;;;;;;61.83;32.00;;;-5.10;99.90;;;;;;4975467;28;20378;-84
2022/12/13 03:00:15;;;;;;;68.30;33.05;;;-5.10;99.90;;;;;;4971830;28;20054;-85
2022/12/13 03:03:17;;;;;;;60.70;30.48;;;-5.10;99.90;;;;;;4973771;28;20054;-86
2022/12/13 03:09:27;;;;;;;65.75;32.67;;;-5.10;99.90;;;;;;4972673;28;20576;-85
2022/12/13 03:15:22;;;;;;;64.38;32.38;;;-5.10;99.90;;;;;;4932862;28;20213;-84
2022/12/13 03:18:02;;;;;;;60.80;32.20;;;-5.10;99.90;;;;;;4969533;28;20156;-84
2022/12/13 03:20:29;;;;;;;60.08;31.08;;;-5.10;99.90;;;;;;4959909;28;20050;-85
2022/12/13 03:22:56;;;;;;;65.65;32.15;;;-5.10;99.90;;;;;;4973358;28;20745;-85
2022/12/13 03:25:26;;;;;;;59.13;30.30;;;-5.20;99.90;;;;;;4960632;28;20089;-85
2022/12/13 03:27:52;;;;;;;58.25;30.50;;;-5.20;99.90;;;;;;4994445;28;20536;-84
2022/12/13 03:30:18;;;;;;;60.90;29.77;;;-5.20;99.90;;;;;;4979034;28;20041;-84
2022/12/13 03:32:44;;;;;;;52.15;29.85;;;-5.20;99.90;;;;;;4975864;28;20446;-84
2022/12/13 03:35:09;;;;;;;60.28;31.95;;;-5.20;99.90;;;;;;4981091;28;20053;-84
2022/12/13 03:37:35;;;;;;;58.20;30.92;;;-5.30;99.90;;;;;;4977433;28;20074;-85
2022/12/13 03:40:01;;;;;;;58.55;30.25;;;-5.30;99.90;;;;;;4960158;28;20045;-83
2022/12/13 03:42:27;;;;;;;68.60;32.17;;;-5.30;99.90;;;;;;4976392;28;20386;-84
2022/12/13 03:44:53;;;;;;;52.58;28.50;;;-5.30;99.90;;;;;;4958254;28;20457;-84
2022/12/13 03:47:19;;;;;;;56.97;29.45;;;-5.20;99.90;;;;;;4977315;28;20053;-83
2022/12/13 03:49:45;;;;;;;58.97;30.95;;;-5.30;99.90;;;;;;4975730;28;20662;-84
2022/12/13 03:52:11;;;;;;;61.50;31.38;;;-5.30;99.90;;;;;;4974909;28;20429;-84
2022/12/13 03:54:36;;;;;;;63.47;29.52;;;-5.30;99.90;;;;;;4975009;28;20419;-84
2022/12/13 03:57:02;;;;;;;57.53;29.40;;;-5.30;99.90;;;;;;4976868;28;20048;-84
2022/12/13 03:59:28;;;;;;;57.20;29.45;;;-5.30;99.90;;;;;;4975405;28;20053;-85
2022/12/13 04:01:54;;;;;;;53.83;29.45;;;-5.30;99.90;;;;;;4976402;28;20538;-84
2022/12/13 04:04:22;;;;;;;57.00;29.02;;;-5.30;99.90;;;;;;4975951;28;20053;-84
2022/12/13 04:06:48;;;;;;;53.28;28.27;;;-5.40;99.90;;;;;;4993434;28;20462;-85
2022/12/13 04:09:14;;;;;;;54.33;28.48;;;-5.40;99.90;;;;;;4975115;28;20046;-84
2022/12/13 04:14:23;;;;;;;55.30;29.85;;;-5.40;99.90;;;;;;4975034;28;20057;-84
2022/12/13 04:16:51;;;;;;;55.15;28.73;;;-5.40;99.90;;;;;;4977613;28;22550;-84
2022/12/13 04:19:16;;;;;;;59.83;29.65;;;-5.50;99.90;;;;;;4976910;28;20099;-84
2022/12/13 04:21:42;;;;;;;53.25;28.05;;;-5.40;99.90;;;;;;4980712;28;20050;-84
2022/12/13 04:24:11;;;;;;;50.83;27.50;;;-5.40;99.90;;;;;;4974807;28;20081;-84
2022/12/13 04:26:36;;;;;;;55.47;27.80;;;-5.50;99.90;;;;;;4992253;28;20053;-85
2022/12/13 04:29:02;;;;;;;50.90;27.08;;;-5.50;99.90;;;;;;4971576;28;20030;-84
2022/12/13 04:31:28;;;;;;;50.95;26.08;;;-5.50;99.90;;;;;;4976992;28;20390;-84
2022/12/13 04:33:53;;;;;;;54.63;26.48;;;-5.50;99.90;;;;;;4976749;28;20552;-83
2022/12/13 04:36:19;;;;;;;51.08;26.63;;;-5.40;99.90;;;;;;4964955;28;20107;-84
2022/12/13 04:38:48;;;;;;;49.10;25.48;;;-5.40;99.90;;;;;;4960206;28;20158;-84
2022/12/13 04:41:16;;;;;;;52.60;26.02;;;-5.40;99.90;;;;;;4976064;28;20042;-84
2022/12/13 04:43:43;;;;;;;53.30;26.90;;;-5.50;99.90;;;;;;4963772;28;20421;-83
2022/12/13 04:46:09;;;;;;;55.45;27.63;;;-5.40;99.90;;;;;;4976480;28;20056;-84
2022/12/13 04:48:34;;;;;;;56.33;26.73;;;-5.40;99.90;;;;;;4989181;28;20046;-84
2022/12/13 04:51:00;;;;;;;52.88;25.05;;;-5.40;99.90;;;;;;4975564;28;20061;-84
2022/12/13 04:53:27;;;;;;;54.63;26.90;;;-5.50;99.90;;;;;;4974804;28;20046;-84
2022/12/13 04:55:53;;;;;;;45.17;25.95;;;-5.50;99.90;;;;;;4975313;28;20528;-85
2022/12/13 04:58:19;;;;;;;53.10;27.20;;;-5.50;99.90;;;;;;4958315;28;20049;-84
2022/12/13 05:00:45;;;;;;;51.53;27.58;;;-5.50;99.90;;;;;;4978293;28;20049;-84
2022/12/13 05:03:10;;;;;;;50.92;27.17;;;-5.40;99.90;;;;;;4972428;28;21271;-84
2022/12/13 05:05:40;;;;;;;55.28;27.92;;;-5.40;99.90;;;;;;4978271;28;20045;-85
2022/12/13 05:08:07;;;;;;;48.75;26.70;;;-5.40;99.90;;;;;;4974817;28;20294;-84
2022/12/13 05:10:36;;;;;;;49.83;26.65;;;-5.40;99.90;;;;;;4976424;28;20041;-84
2022/12/13 05:13:03;;;;;;;48.80;25.65;;;-5.40;99.90;;;;;;4964429;28;20544;-84
2022/12/13 05:15:29;;;;;;;47.97;23.10;;;-5.40;99.90;;;;;;4974768;28;20076;-83
2022/12/13 05:18:05;;;;;;;48.15;23.25;;;-5.40;99.90;;;;;;4976001;28;20388;-84
2022/12/13 05:20:32;;;;;;;44.00;21.70;;;-5.40;99.90;;;;;;4991754;28;20458;-84
2022/12/13 05:22:58;;;;;;;42.45;20.85;;;-5.50;99.90;;;;;;4975212;28;20704;-84
2022/12/13 05:25:25;;;;;;;41.10;20.95;;;-5.50;99.90;;;;;;4977839;28;20062;-84
2022/12/13 05:27:54;;;;;;;42.28;22.55;;;-5.50;99.90;;;;;;4977037;28;20111;-84
2022/12/13 05:30:20;;;;;;;43.08;21.75;;;-5.50;99.90;;;;;;4991022;28;20053;-84
2022/12/13 05:32:45;;;;;;;40.25;20.40;;;-5.50;99.90;;;;;;4978473;28;20373;-84
2022/12/13 05:35:13;;;;;;;44.83;20.92;;;-5.50;99.90;;;;;;4976674;28;20073;-84
2022/12/13 05:37:38;;;;;;;44.45;20.65;;;-5.50;99.90;;;;;;4974534;28;20061;-84
2022/12/13 05:40:05;;;;;;;42.03;22.73;;;-5.50;99.90;;;;;;4974792;28;20079;-84
2022/12/13 05:42:30;;;;;;;45.05;22.65;;;-5.50;99.90;;;;;;4992660;28;20046;-84
2022/12/13 05:44:56;;;;;;;44.25;22.08;;;-5.50;99.90;;;;;;4972369;28;20759;-84
2022/12/13 05:47:21;;;;;;;46.13;22.23;;;-5.50;99.90;;;;;;4974727;28;20398;-84
2022/12/13 05:49:47;;;;;;;40.35;20.88;;;-5.50;99.90;;;;;;4989526;28;20623;-84
2022/12/13 05:52:20;;;;;;;44.03;21.50;;;-5.50;99.90;;;;;;4974959;28;20124;-84
2022/12/13 05:54:46;;;;;;;43.65;21.90;;;-5.50;99.90;;;;;;4973230;28;20659;-83
2022/12/13 05:57:13;;;;;;;44.35;22.00;;;-5.50;99.90;;;;;;4961088;28;20038;-85
2022/12/13 05:59:39;;;;;;;43.28;21.15;;;-5.50;99.90;;;;;;4953734;28;20822;-85
2022/12/13 06:02:04;;;;;;;40.85;20.25;;;-5.50;99.90;;;;;;4955431;28;20054;-85
2022/12/13 06:04:33;;;;;;;42.50;22.17;;;-5.50;99.90;;;;;;4973734;28;20046;-85
2022/12/13 06:07:01;;;;;;;45.15;22.75;;;-5.50;99.90;;;;;;4972769;28;20046;-84
2022/12/13 06:09:27;;;;;;;48.78;22.02;;;-5.50;99.90;;;;;;4966560;28;20058;-85
2022/12/13 06:11:53;;;;;;;48.92;24.60;;;-5.50;99.90;;;;;;4966284;28;20042;-84
2022/12/13 06:14:19;;;;;;;48.47;24.48;;;-5.50;99.90;;;;;;4970970;28;20351;-84
2022/12/13 06:16:44;;;;;;;50.33;22.77;;;-5.50;99.90;;;;;;4985530;28;20129;-84
2022/12/13 06:19:10;;;;;;;50.55;23.83;;;-5.50;99.90;;;;;;4968931;28;20050;-85
2022/12/13 06:21:36;;;;;;;49.55;22.73;;;-5.40;99.90;;;;;;4952924;28;20084;-85
2022/12/13 06:24:04;;;;;;;49.63;23.48;;;-5.50;99.90;;;;;;4965850;28;20381;-84
2022/12/13 06:26:30;;;;;;;45.78;22.75;;;-5.50;99.90;;;;;;4967731;28;20042;-84
2022/12/13 06:28:58;;;;;;;45.25;22.17;;;-5.50;99.90;;;;;;4968493;28;20379;-85
2022/12/13 06:31:24;;;;;;;49.72;23.65;;;-5.50;99.90;;;;;;4972687;28;20046;-84
2022/12/13 06:33:50;;;;;;;42.53;22.92;;;-5.50;99.90;;;;;;4968807;28;20050;-85
2022/12/13 06:36:16;;;;;;;43.42;22.73;;;-5.50;99.90;;;;;;4954408;28;20187;-85
2022/12/13 06:38:41;;;;;;;48.20;23.05;;;-5.50;99.90;;;;;;4952938;28;20378;-84
2022/12/13 06:41:13;;;;;;;47.08;26.65;;;-5.50;99.90;;;;;;4968399;28;20117;-85
2022/12/13 06:43:47;;;;;;;44.72;22.38;;;-5.40;99.90;;;;;;4967020;28;20124;-85
2022/12/13 06:46:14;;;;;;;56.35;25.30;;;-5.50;99.90;;;;;;4970994;28;20092;-84
2022/12/13 06:48:43;;;;;;;46.28;22.80;;;-5.40;99.90;;;;;;4966961;28;20656;-84
2022/12/13 06:51:09;;;;;;;49.20;24.70;;;-5.40;99.90;;;;;;4971583;28;20053;-84
2022/12/13 06:53:37;;;;;;;46.58;22.98;;;-5.40;99.90;;;;;;4986131;28;20042;-84
2022/12/13 06:56:11;;;;;;;54.10;23.40;;;-5.40;99.90;;;;;;4970189;28;20386;-84
2022/12/13 06:58:37;;;;;;;41.55;23.08;;;-5.30;99.90;;;;;;4974905;28;20081;-85
2022/12/13 07:01:15;;;;;;;48.22;22.60;;;-5.40;99.90;;;;;;4973646;28;20132;-85
2022/12/13 07:03:42;;;;;;;46.83;23.38;;;-5.30;99.90;;;;;;4977825;28;20115;-85
2022/12/13 07:06:19;;;;;;;52.33;26.13;;;-5.30;99.90;;;;;;4984572;28;20046;-85
2022/12/13 07:08:51;;;;;;;48.72;24.83;;;-5.30;99.90;;;;;;4979168;28;20128;-85
2022/12/13 07:11:19;;;;;;;43.88;23.25;;;-5.30;99.90;;;;;;4980752;28;20088;-83
2022/12/13 07:13:45;;;;;;;49.45;24.70;;;-5.30;99.90;;;;;;4974319;28;20413;-85
2022/12/13 07:16:11;;;;;;;46.58;23.50;;;-5.30;99.90;;;;;;4982169;28;20505;-85
2022/12/13 07:18:37;;;;;;;47.83;23.90;;;-5.30;99.90;;;;;;4983496;28;20374;-84
2022/12/13 07:21:09;;;;;;;48.45;24.02;;;-5.40;99.90;;;;;;4979097;28;20061;-83
2022/12/13 07:23:36;;;;;;;45.08;23.65;;;-5.30;99.90;;;;;;4981227;28;20502;-84
2022/12/13 07:26:02;;;;;;;48.47;23.75;;;-5.30;99.90;;;;;;4981951;28;20412;-84
2022/12/13 07:28:30;;;;;;;52.58;24.02;;;-5.20;99.90;;;;;;4978215;28;20397;-85
2022/12/13 07:31:00;;;;;;;52.80;24.95;;;-5.20;99.90;;;;;;4975655;28;20121;-84
2022/12/13 07:33:28;;;;;;;46.83;22.92;;;-5.30;99.90;;;;;;4993880;28;20033;-84
2022/12/13 07:36:05;;;;;;;49.78;24.15;;;-5.20;99.90;;;;;;4974981;28;20053;-84
2022/12/13 07:38:34;;;;;;;46.88;21.90;;;-5.30;99.90;;;;;;4991027;28;20165;-85
2022/12/13 07:41:01;;;;;;;44.03;22.83;;;-5.30;99.90;;;;;;4977491;28;20048;-84
2022/12/13 07:43:28;;;;;;;43.72;22.75;;;-5.30;99.90;;;;;;4993436;28;20516;-85
2022/12/13 09:22:21;;;;;;;91.80;51.10;;;-3.40;99.90;;;;;;6127790;22;1302862;-84
2022/12/13 09:24:47;;;;;;;87.90;46.22;;;-3.10;99.90;;;;;;6179086;23;20027;-84
2022/12/13 09:27:13;;;;;;;82.43;41.50;;;-3.10;99.90;;;;;;6153699;23;20040;-84
2022/12/13 09:29:38;;;;;;;71.05;33.88;;;-3.00;99.90;;;;;;6175416;23;20053;-84
2022/12/13 09:32:04;;;;;;;77.45;33.78;;;-3.00;99.90;;;;;;6154390;23;20442;-86
2022/12/13 09:34:31;;;;;;;75.82;35.58;;;-2.80;99.90;;;;;;6153164;23;20012;-85
2022/12/13 09:36:57;;;;;;;80.53;34.38;;;-2.80;99.90;;;;;;6154900;23;20020;-84
2022/12/13 09:39:23;;;;;;;75.65;36.00;;;-2.70;99.90;;;;;;6177789;23;20389;-84
2022/12/13 09:41:54;;;;;;;73.65;33.03;;;-2.60;99.90;;;;;;6155346;23;20024;-84
2022/12/13 09:44:35;;;;;;;67.65;32.33;;;-2.60;99.90;;;;;;6176037;23;20099;-84
2022/12/13 09:47:04;;;;;;;70.50;34.08;;;-2.50;99.90;;;;;;6179274;23;20017;-82
2022/12/13 09:49:40;;;;;;;77.40;33.25;;;-2.50;99.90;;;;;;6154367;23;20120;-82
2022/12/13 09:52:11;;;;;;;67.45;32.47;;;-2.40;99.90;;;;;;6180087;23;20020;-82
2022/12/13 09:54:38;;;;;;;64.63;31.50;;;-2.30;99.90;;;;;;6153756;23;20024;-83
2022/12/13 09:57:21;;;;;;;72.40;32.72;;;-2.30;99.90;;;;;;6180261;23;20012;-83
2022/12/13 09:59:47;;;;;;;67.15;30.10;;;-2.20;99.90;;;;;;6176449;23;20385;-82
2022/12/13 10:02:26;;;;;;;66.97;31.60;;;-2.10;99.90;;;;;;6180254;23;20013;-82
2022/12/13 10:04:55;;;;;;;70.13;29.63;;;-2.00;99.90;;;;;;6179110;23;20062;-82
2022/12/13 10:07:26;;;;;;;72.93;31.00;;;-2.00;99.90;;;;;;6155236;23;20159;-81
2022/12/13 10:10:00;;;;;;;68.72;31.45;;;-1.90;99.90;;;;;;6179820;23;20056;-81
2022/12/13 10:12:31;;;;;;;66.53;31.38;;;-1.80;99.90;;;;;;6180073;23;20020;-81
2022/12/13 10:15:00;;;;;;;61.15;29.85;;;-1.70;99.90;;;;;;6152669;23;20023;-81
2022/12/13 10:17:31;;;;;;;71.20;31.65;;;-1.60;99.90;;;;;;6155626;23;20016;-81
2022/12/13 10:19:57;;;;;;;66.88;31.63;;;-1.50;99.90;;;;;;6154958;23;20223;-80
2022/12/13 10:22:23;;;;;;;61.90;31.02;;;-1.50;99.90;;;;;;6150487;23;20484;-80
2022/12/13 10:25:02;;;;;;;57.53;29.92;;;-1.40;99.90;;;;;;6171474;23;20072;-81
2022/12/13 10:27:43;;;;;;;62.67;29.35;;;-1.40;99.90;;;;;;6148427;23;20410;-81
2022/12/13 10:30:23;;;;;;;59.25;30.20;;;-1.30;99.90;;;;;;6147156;23;20025;-81
2022/12/13 10:32:49;;;;;;;63.35;30.02;;;-1.30;99.90;;;;;;6147265;23;20366;-80
2022/12/13 10:35:28;;;;;;;63.63;28.88;;;-1.20;99.90;;;;;;6149069;23;20063;-81
2022/12/13 10:37:55;;;;;;;59.47;29.52;;;-1.10;99.90;;;;;;6172179;23;20434;-80
2022/12/13 10:40:36;;;;;;;60.92;29.65;;;-1.10;99.90;;;;;;6148487;23;20060;-81
2022/12/13 10:43:12;;;;;;;56.15;27.70;;;-1.10;99.90;;;;;;6146606;23;20021;-81
2022/12/13 10:45:39;;;;;;;58.53;29.67;;;-1.10;99.90;;;;;;6172868;23;20036;-81
2022/12/13 10:48:16;;;;;;;64.47;28.67;;;-1.00;99.90;;;;;;6148576;23;20016;-81
2022/12/13 10:50:42;;;;;;;52.22;27.33;;;-1.00;99.90;;;;;;6174838;23;20076;-81
2022/12/13 10:53:18;;;;;;;57.67;28.02;;;-1.00;99.90;;;;;;6172744;23;20021;-81
2022/12/13 10:55:44;;;;;;;50.90;26.88;;;-1.00;99.90;;;;;;6149198;23;20020;-81
2022/12/13 10:58:18;;;;;;;51.30;28.75;;;-0.90;99.90;;;;;;6145964;23;20013;-80
2022/12/13 11:00:48;;;;;;;51.65;26.70;;;-0.90;99.90;;;;;;6148663;23;20432;-80
2022/12/13 11:03:31;;;;;;;60.22;27.95;;;-0.80;99.90;;;;;;6147661;23;20013;-80
2022/12/13 11:06:15;;;;;;;50.35;27.30;;;-0.90;99.90;;;;;;6149171;23;20396;-81
2022/12/13 11:08:41;;;;;;;50.80;26.40;;;-0.80;99.90;;;;;;6172925;23;20013;-81
2022/12/13 11:11:08;;;;;;;50.83;26.70;;;-0.80;99.90;;;;;;6149026;23;20028;-81
2022/12/13 11:13:52;;;;;;;47.15;24.88;;;-0.80;99.90;;;;;;6170207;23;20402;-80
2022/12/13 11:16:34;;;;;;;53.72;26.63;;;-0.70;99.90;;;;;;6149691;23;20021;-81
2022/12/13 11:19:03;;;;;;;46.38;24.83;;;-0.70;99.90;;;;;;6149115;23;20099;-81
2022/12/13 11:21:33;;;;;;;50.08;24.27;;;-0.70;99.90;;;;;;6173109;23;20029;-81
2022/12/13 11:24:02;;;;;;;52.30;25.30;;;-0.60;99.90;;;;;;6173138;23;20021;-81
2022/12/13 11:26:31;;;;;;;44.42;23.45;;;-0.60;99.90;;;;;;6148261;23;20021;-80
2022/12/13 11:29:18;;;;;;;46.13;24.92;;;-0.50;99.90;;;;;;6169421;23;20016;-81
2022/12/13 11:32:15;;;;;;;46.95;24.17;;;-0.40;99.90;;;;;;6149187;23;20085;-81
2022/12/13 11:35:00;;;;;;;47.78;24.42;;;-0.50;99.90;;;;;;6171072;23;20178;-81
2022/12/13 11:37:56;;;;;;;48.47;23.83;;;-0.40;99.90;;;;;;6148146;23;20052;-80
2022/12/13 11:40:26;;;;;;;43.00;21.88;;;-0.40;99.90;;;;;;6148151;23;20442;-80
2022/12/13 11:43:20;;;;;;;44.58;22.65;;;-0.30;99.90;;;;;;6146537;23;20017;-81
2022/12/13 11:45:54;;;;;;;43.00;21.42;;;-0.30;99.90;;;;;;6149067;23;20067;-81
2022/12/13 11:48:57;;;;;;;42.42;21.90;;;-0.30;99.90;;;;;;6172187;23;20109;-80
2022/12/13 11:51:37;;;;;;;38.28;20.58;;;-0.30;99.90;;;;;;6148761;23;20013;-80
2022/12/13 11:54:27;;;;;;;37.42;20.30;;;-0.10;99.90;;;;;;6172233;23;20040;-80
2022/12/13 11:56:56;;;;;;;35.28;19.42;;;-0.20;99.90;;;;;;6173417;23;20023;-80
2022/12/13 11:59:22;;;;;;;35.30;18.67;;;-0.10;99.90;;;;;;6145999;23;20453;-81
2022/12/13 12:02:05;;;;;;;33.30;18.20;;;-0.10;99.90;;;;;;6147396;23;20020;-80
2022/12/13 12:04:43;;;;;;;37.00;18.42;;;-0.10;99.90;;;;;;6148186;23;20020;-80
2022/12/13 12:07:12;;;;;;;35.30;19.73;;;-0.10;99.90;;;;;;6150236;23;20426;-80
2022/12/13 12:09:46;;;;;;;31.23;18.60;;;-0.10;99.90;;;;;;6147818;23;20021;-81
2022/12/13 12:12:24;;;;;;;34.10;18.13;;;0.00;99.90;;;;;;6172979;23;20023;-80
2022/12/13 12:14:55;;;;;;;32.65;17.88;;;0.00;99.90;;;;;;6169808;23;20012;-80
2022/12/13 12:17:24;;;;;;;32.65;16.27;;;0.10;99.90;;;;;;6173214;23;20017;-81
2022/12/13 12:19:53;;;;;;;32.08;16.13;;;0.10;99.90;;;;;;6147942;23;20394;-81
2022/12/13 12:22:31;;;;;;;31.48;16.73;;;0.20;99.90;;;;;;6094976;23;20021;-81
2022/12/13 12:25:15;;;;;;;29.42;16.92;;;0.20;99.90;;;;;;6094812;23;20019;-80
2022/12/13 12:27:57;;;;;;;28.70;16.30;;;0.20;99.90;;;;;;6141635;23;20009;-80
2022/12/13 12:30:52;;;;;;;27.83;15.93;;;0.20;99.90;;;;;;6141449;23;20017;-80
2022/12/13 12:33:45;;;;;;;27.25;15.60;;;0.20;99.90;;;;;;6090149;23;20029;-81
2022/12/13 12:36:31;;;;;;;25.55;14.27;;;0.20;99.90;;;;;;6143340;23;20017;-80
2022/12/13 12:39:25;;;;;;;26.13;14.82;;;0.20;99.90;;;;;;6142723;23;20100;-81
2022/12/13 12:42:20;;;;;;;29.73;14.77;;;0.20;99.90;;;;;;6094312;23;20346;-80
2022/12/13 12:44:49;;;;;;;27.57;15.33;;;0.20;99.90;;;;;;6114950;23;20097;-80
2022/12/13 12:47:42;;;;;;;27.10;16.05;;;0.30;99.90;;;;;;6143706;23;20017;-80
2022/12/13 12:50:23;;;;;;;29.02;16.48;;;0.30;99.90;;;;;;6143790;23;20055;-80
2022/12/13 12:53:15;;;;;;;27.65;15.90;;;0.30;99.90;;;;;;6094204;23;20859;-80
2022/12/13 12:55:50;;;;;;;30.70;16.58;;;0.40;99.90;;;;;;6119649;23;20092;-80
2022/12/13 12:58:50;;;;;;;28.10;16.58;;;0.40;99.90;;;;;;6090788;23;20092;-80
2022/12/13 13:01:36;;;;;;;39.67;17.58;;;0.40;99.90;;;;;;6143913;23;20017;-81
2022/12/13 13:04:07;;;;;;;27.77;16.75;;;0.40;99.90;;;;;;6094467;23;20106;-80
2022/12/13 13:06:46;;;;;;;29.00;14.90;;;0.40;99.90;;;;;;6094561;23;20014;-80
2022/12/13 13:09:15;;;;;;;28.63;15.50;;;0.40;99.90;;;;;;6093372;23;20013;-80
2022/12/13 13:11:43;;;;;;;27.40;15.82;;;0.40;99.90;;;;;;6093506;23;20472;-80
2022/12/13 13:14:28;;;;;;;25.02;15.95;;;0.40;99.90;;;;;;6091709;23;20451;-80
2022/12/13 13:16:55;;;;;;;26.85;16.17;;;0.50;99.90;;;;;;6142838;23;20052;-81
2022/12/13 13:19:42;;;;;;;31.02;16.83;;;0.50;99.90;;;;;;6142119;23;20017;-80
2022/12/13 13:22:29;;;;;;;31.05;16.38;;;0.50;99.90;;;;;;6144255;23;20536;-80
2022/12/13 13:25:24;;;;;;;28.05;16.83;;;0.50;99.90;;;;;;6147703;23;20017;-80
2022/12/13 13:27:58;;;;;;;31.88;16.92;;;0.70;99.90;;;;;;6142839;23;20027;-81
2022/12/13 13:30:25;;;;;;;29.48;17.27;;;1.00;99.90;;;;;;6147556;23;20088;-80
2022/12/13 13:32:52;;;;;;;28.38;16.95;;;1.30;99.90;;;;;;6147758;23;20465;-80
2022/12/13 13:35:30;;;;;;;29.38;18.08;;;1.50;99.90;;;;;;6172827;23;20096;-80
2022/12/13 13:38:17;;;;;;;28.27;17.58;;;1.60;99.90;;;;;;6173471;23;20017;-80
2022/12/13 13:40:46;;;;;;;28.15;17.17;;;1.80;99.90;;;;;;6156935;23;20104;-80
2022/12/13 13:43:13;;;;;;;29.42;17.42;;;2.00;99.90;;;;;;6145275;23;20019;-80
2022/12/13 13:45:51;;;;;;;29.77;17.67;;;2.10;99.90;;;;;;6148853;23;20623;-80
2022/12/13 13:48:39;;;;;;;29.45;17.30;;;2.40;99.90;;;;;;6172205;23;20534;-80
2022/12/13 13:51:20;;;;;;;28.48;16.92;;;1.90;99.90;;;;;;6149142;23;20452;-80
2022/12/13 13:54:04;;;;;;;29.48;17.50;;;1.60;99.90;;;;;;6148528;23;20397;-80
2022/12/13 13:56:42;;;;;;;27.65;17.88;;;1.40;99.90;;;;;;6173075;23;20107;-80
2022/12/13 13:59:33;;;;;;;27.65;17.23;;;1.10;99.90;;;;;;6146755;23;20112;-80
2022/12/13 14:02:27;;;;;;;27.95;17.73;;;0.90;99.90;;;;;;6150538;23;20035;-80
2022/12/13 14:05:29;;;;;;;33.80;19.70;;;0.80;99.90;;;;;;6149910;23;20096;-81
2022/12/13 14:08:16;;;;;;;30.35;19.52;;;0.60;99.90;;;;;;6143985;23;20020;-80
2022/12/13 14:11:18;;;;;;;31.33;19.42;;;0.50;99.90;;;;;;6175135;23;20009;-80
2022/12/13 14:14:03;;;;;;;30.05;18.98;;;0.40;99.90;;;;;;6171393;23;20092;-80
2022/12/13 14:16:31;;;;;;;35.53;20.38;;;0.30;99.90;;;;;;6149929;23;20048;-81
2022/12/13 14:19:32;;;;;;;29.92;18.60;;;0.30;99.90;;;;;;6149350;23;20013;-80
2022/12/13 14:22:10;;;;;;;32.45;19.70;;;0.30;99.90;;;;;;6149997;23;20132;-80
2022/12/13 14:24:50;;;;;;;33.00;19.23;;;0.10;99.90;;;;;;6149774;23;20013;-80
2022/12/13 14:27:41;;;;;;;38.42;19.23;;;0.00;99.90;;;;;;6149588;23;20442;-80
2022/12/13 14:30:13;;;;;;;35.08;19.88;;;-0.10;99.90;;;;;;6147551;23;20017;-80
2022/12/13 14:32:40;;;;;;;31.67;20.27;;;-0.10;99.90;;;;;;6149778;23;20104;-80
2022/12/13 14:35:06;;;;;;;35.70;19.55;;;-0.20;99.90;;;;;;6175428;23;20009;-80
2022/12/13 14:37:36;;;;;;;35.92;21.33;;;-0.20;99.90;;;;;;6150003;23;20016;-81
2022/12/13 14:40:23;;;;;;;34.97;20.33;;;-0.30;99.90;;;;;;6149004;23;20048;-81